Time;durP1;ratioP1;P1;durP2;ratioP2;P2;SDS_P1;SDS_P2;PMS_P1;PMS_P2;Temp;Humidity;BMP_temperature;BMP_pressure;BME280_temperature;BME280_humidity;BME280_pressure;Samples;Min_cycle;Max_cycle;Signal;HPM_P1;HPM_P2
2022/04/08 00:01:35;;;;;;;5.63;1.70;;;17.50;60.00;;;;;;5015272;28;20037;-63
2022/04/08 00:04:01;;;;;;;4.30;1.40;;;17.50;60.00;;;;;;5018047;28;20026;-63
2022/04/08 00:06:26;;;;;;;5.90;1.48;;;17.50;60.10;;;;;;5024357;28;20030;-63
2022/04/08 00:08:52;;;;;;;6.05;1.80;;;17.50;60.00;;;;;;5021326;28;20040;-62
2022/04/08 00:11:18;;;;;;;6.95;1.60;;;17.50;60.00;;;;;;5025908;28;20038;-63
2022/04/08 00:13:43;;;;;;;5.68;1.60;;;17.50;60.10;;;;;;5018968;28;20029;-63
2022/04/08 00:16:09;;;;;;;6.25;1.58;;;17.50;60.10;;;;;;5018256;28;20456;-63
2022/04/08 00:18:35;;;;;;;4.57;1.35;;;17.50;60.20;;;;;;5024496;28;20698;-63
2022/04/08 00:21:01;;;;;;;5.80;1.52;;;17.50;60.20;;;;;;5022059;28;20406;-63
2022/04/08 00:23:27;;;;;;;5.75;1.67;;;17.50;60.40;;;;;;5019920;28;20030;-63
2022/04/08 00:25:52;;;;;;;5.78;1.58;;;17.50;60.40;;;;;;5025689;28;20021;-63
2022/04/08 00:28:18;;;;;;;3.42;1.20;;;17.50;61.40;;;;;;5022841;28;20057;-63
2022/04/08 00:30:44;;;;;;;4.90;1.30;;;17.50;60.40;;;;;;5012249;28;20022;-63
2022/04/08 00:33:09;;;;;;;4.80;1.48;;;17.40;60.30;;;;;;5025633;28;20548;-63
2022/04/08 00:35:35;;;;;;;3.78;1.30;;;17.50;60.40;;;;;;5015787;28;20030;-63
2022/04/08 00:38:01;;;;;;;4.90;1.60;;;17.40;60.40;;;;;;5017486;28;20041;-63
2022/04/08 00:40:27;;;;;;;4.82;1.40;;;17.40;60.40;;;;;;5018840;28;20026;-63
2022/04/08 00:42:53;;;;;;;5.30;1.52;;;17.40;60.50;;;;;;5022022;28;20033;-63
2022/04/08 00:45:18;;;;;;;4.85;1.40;;;17.50;60.50;;;;;;5022558;28;20133;-63
2022/04/08 00:47:44;;;;;;;4.90;1.40;;;17.40;60.50;;;;;;5017502;28;20034;-62
2022/04/08 00:50:13;;;;;;;4.25;1.48;;;17.40;60.50;;;;;;5023494;28;20061;-63
2022/04/08 00:52:42;;;;;;;5.55;1.40;;;17.40;60.60;;;;;;5016818;28;20028;-63
2022/04/08 00:55:08;;;;;;;4.88;1.30;;;17.40;60.50;;;;;;5013544;28;20052;-63
2022/04/08 00:57:34;;;;;;;4.80;1.50;;;17.40;60.50;;;;;;5015752;28;20026;-63
2022/04/08 01:00:10;;;;;;;4.88;1.40;;;17.40;60.50;;;;;;5021578;28;20034;-63
2022/04/08 01:02:36;;;;;;;4.78;1.52;;;17.40;60.60;;;;;;5021172;28;20406;-63
2022/04/08 01:05:02;;;;;;;4.75;1.40;;;17.40;60.60;;;;;;5022760;28;20037;-63
2022/04/08 01:07:28;;;;;;;4.55;1.20;;;17.40;60.70;;;;;;5017147;28;20055;-63
2022/04/08 01:09:54;;;;;;;5.78;1.52;;;17.40;60.60;;;;;;5022424;28;20030;-63
2022/04/08 01:12:20;;;;;;;4.38;1.40;;;17.40;60.60;;;;;;5018112;28;20465;-62
2022/04/08 01:14:45;;;;;;;5.57;1.38;;;17.30;60.60;;;;;;5026584;28;20068;-62
2022/04/08 01:17:11;;;;;;;4.80;1.40;;;17.40;60.80;;;;;;5021171;28;20405;-62
2022/04/08 01:19:37;;;;;;;4.80;1.40;;;17.30;60.70;;;;;;5019995;28;20078;-63
2022/04/08 01:22:03;;;;;;;3.90;1.40;;;17.30;60.70;;;;;;5013637;28;20025;-63
2022/04/08 01:24:29;;;;;;;4.10;1.50;;;17.30;60.70;;;;;;5018393;28;20525;-63
2022/04/08 01:26:55;;;;;;;4.40;1.42;;;17.30;60.70;;;;;;5026784;28;20026;-63
2022/04/08 01:29:20;;;;;;;4.10;1.33;;;17.30;60.70;;;;;;5028798;28;20068;-62
2022/04/08 01:31:46;;;;;;;4.68;1.33;;;17.30;60.80;;;;;;5024551;28;20028;-62
2022/04/08 01:34:12;;;;;;;6.30;1.50;;;17.30;61.80;;;;;;5024082;28;20033;-62
2022/04/08 01:36:38;;;;;;;4.97;1.30;;;17.30;60.80;;;;;;5013585;28;20101;-62
2022/04/08 01:39:06;;;;;;;4.78;1.30;;;17.30;60.80;;;;;;5023722;28;20042;-62
2022/04/08 01:41:32;;;;;;;4.05;1.30;;;17.30;60.80;;;;;;5025561;28;20438;-62
2022/04/08 01:43:58;;;;;;;4.13;1.23;;;17.30;60.80;;;;;;5017490;28;20049;-63
2022/04/08 01:46:24;;;;;;;4.00;1.27;;;17.30;60.80;;;;;;5014021;28;20022;-63
2022/04/08 01:48:53;;;;;;;5.25;1.20;;;17.30;60.80;;;;;;5022215;28;20534;-63
2022/04/08 01:51:19;;;;;;;4.72;1.48;;;17.30;60.90;;;;;;5031465;28;20049;-63
2022/04/08 01:53:45;;;;;;;3.60;1.33;;;17.20;60.80;;;;;;5018255;28;20021;-63
2022/04/08 01:56:11;;;;;;;4.22;1.27;;;17.30;61.00;;;;;;5018683;28;20384;-62
2022/04/08 01:58:37;;;;;;;3.85;1.10;;;17.20;60.80;;;;;;5020475;28;20029;-62
2022/04/08 02:01:03;;;;;;;4.20;1.40;;;17.20;60.90;;;;;;5015717;28;20062;-62
2022/04/08 02:03:28;;;;;;;5.28;1.48;;;17.20;60.90;;;;;;5010326;28;20037;-62
2022/04/08 02:05:54;;;;;;;4.82;1.23;;;17.20;60.90;;;;;;5020685;28;20041;-62
2022/04/08 02:08:20;;;;;;;4.07;1.30;;;17.20;60.90;;;;;;5025318;28;20394;-63
2022/04/08 02:10:45;;;;;;;3.65;1.38;;;17.20;60.90;;;;;;5017001;28;20041;-63
2022/04/08 02:13:11;;;;;;;4.60;1.27;;;17.20;61.00;;;;;;5010998;28;20044;-63
2022/04/08 02:15:37;;;;;;;5.78;1.35;;;17.20;61.00;;;;;;5015009;28;20052;-63
2022/04/08 02:18:03;;;;;;;4.65;1.17;;;17.20;62.30;;;;;;5024536;28;20026;-63
2022/04/08 02:20:31;;;;;;;4.95;1.30;;;17.20;61.00;;;;;;5019122;28;20052;-63
2022/04/08 02:23:00;;;;;;;3.72;1.20;;;17.20;61.10;;;;;;5018901;28;20104;-63
2022/04/08 02:25:26;;;;;;;4.38;1.25;;;17.20;61.00;;;;;;5017335;28;20040;-62
2022/04/08 02:27:53;;;;;;;3.60;1.20;;;17.20;61.10;;;;;;5019280;28;20041;-63
2022/04/08 02:30:18;;;;;;;3.55;1.13;;;17.20;61.10;;;;;;5020631;28;20065;-63
2022/04/08 02:32:44;;;;;;;3.38;1.10;;;17.10;61.10;;;;;;5023017;28;20061;-62
2022/04/08 02:35:10;;;;;;;6.38;1.42;;;17.10;61.10;;;;;;5021083;28;20469;-63
2022/04/08 02:37:35;;;;;;;4.07;1.23;;;17.20;61.10;;;;;;5014423;28;20025;-62
2022/04/08 02:40:01;;;;;;;3.33;1.20;;;17.20;61.10;;;;;;5015396;28;20026;-62
2022/04/08 02:42:30;;;;;;;3.60;1.33;;;17.20;61.20;;;;;;5018798;28;20040;-62
2022/04/08 02:44:56;;;;;;;4.15;1.10;;;17.20;61.10;;;;;;5020862;28;20554;-63
2022/04/08 02:47:22;;;;;;;5.35;1.10;;;17.20;61.20;;;;;;5013553;28;20050;-63
2022/04/08 02:49:47;;;;;;;4.10;1.17;;;17.10;61.20;;;;;;5019405;28;20033;-63
2022/04/08 02:52:13;;;;;;;4.25;1.40;;;17.10;61.40;;;;;;5013925;28;20060;-63
2022/04/08 02:54:39;;;;;;;3.70;1.15;;;17.10;61.30;;;;;;5016619;28;20114;-62
2022/04/08 02:57:04;;;;;;;3.40;1.00;;;17.10;61.30;;;;;;5021716;28;20060;-63
2022/04/08 02:59:30;;;;;;;3.55;1.25;;;17.10;61.30;;;;;;5019322;28;20029;-62
2022/04/08 03:01:56;;;;;;;2.75;0.95;;;17.10;61.20;;;;;;5016936;28;20205;-62
2022/04/08 03:04:22;;;;;;;3.22;1.00;;;17.10;61.30;;;;;;5019852;28;20052;-62
2022/04/08 03:06:47;;;;;;;3.20;1.10;;;17.10;61.40;;;;;;5014809;28;20022;-62
2022/04/08 03:09:13;;;;;;;3.53;1.20;;;17.10;61.40;;;;;;5017944;28;20548;-62
2022/04/08 03:11:39;;;;;;;3.90;1.17;;;17.10;61.40;;;;;;5022254;28;20558;-63
2022/04/08 03:14:05;;;;;;;3.50;1.10;;;17.10;61.60;;;;;;5025935;28;20066;-63
2022/04/08 03:16:31;;;;;;;2.85;0.93;;;17.10;61.40;;;;;;5021800;28;20025;-62
2022/04/08 03:18:56;;;;;;;4.97;1.08;;;17.10;61.50;;;;;;5014815;28;20099;-63
2022/04/08 03:21:22;;;;;;;3.85;1.23;;;17.00;61.50;;;;;;5013085;28;20041;-63
2022/04/08 03:23:48;;;;;;;4.13;1.02;;;17.00;61.40;;;;;;5023506;28;20624;-62
2022/04/08 03:26:14;;;;;;;3.22;1.00;;;17.10;61.50;;;;;;5022468;28;20088;-62
2022/04/08 03:28:40;;;;;;;3.78;1.08;;;17.10;61.50;;;;;;5025457;28;20109;-62
2022/04/08 03:31:06;;;;;;;3.20;1.00;;;17.10;61.50;;;;;;5017260;28;20034;-62
2022/04/08 03:33:31;;;;;;;3.20;1.02;;;17.00;61.50;;;;;;5016572;28;20561;-62
2022/04/08 03:35:57;;;;;;;3.35;1.20;;;17.00;61.50;;;;;;5026878;28;20026;-62
2022/04/08 03:38:22;;;;;;;2.72;1.00;;;17.00;61.50;;;;;;5027340;28;20059;-63
2022/04/08 03:40:48;;;;;;;3.22;1.08;;;17.00;61.60;;;;;;5027945;28;20135;-62
2022/04/08 03:43:14;;;;;;;3.33;1.00;;;17.00;61.60;;;;;;5014774;28;20229;-62
2022/04/08 03:45:40;;;;;;;2.30;0.73;;;17.00;61.40;;;;;;5020294;28;20406;-62
2022/04/08 03:48:07;;;;;;;3.92;0.95;;;17.00;61.60;;;;;;5023756;28;20052;-62
2022/04/08 03:50:33;;;;;;;3.22;1.10;;;17.00;61.60;;;;;;5022175;28;20509;-62
2022/04/08 03:52:58;;;;;;;3.13;1.00;;;17.00;61.50;;;;;;5022481;28;20037;-62
2022/04/08 03:55:24;;;;;;;2.45;0.90;;;17.00;61.60;;;;;;5020537;28;20021;-62
2022/04/08 03:57:49;;;;;;;2.50;0.80;;;17.00;61.60;;;;;;5032327;28;20038;-62
2022/04/08 04:00:15;;;;;;;4.13;1.30;;;17.00;61.60;;;;;;5015725;28;20025;-62
2022/04/08 04:02:41;;;;;;;2.75;0.98;;;17.00;61.60;;;;;;5027050;28;20038;-62
2022/04/08 04:05:07;;;;;;;2.67;1.02;;;17.00;61.60;;;;;;5027513;28;20017;-62
2022/04/08 04:07:33;;;;;;;3.53;1.10;;;17.00;61.60;;;;;;5019247;28;20112;-62
2022/04/08 04:09:59;;;;;;;2.28;0.90;;;17.00;61.60;;;;;;5027155;28;20056;-62
2022/04/08 04:12:26;;;;;;;3.38;1.10;;;17.00;61.60;;;;;;5025905;28;20041;-62
2022/04/08 04:14:53;;;;;;;2.53;0.80;;;17.00;61.60;;;;;;5018284;28;20026;-63
2022/04/08 04:17:19;;;;;;;7.25;1.00;;;17.00;61.60;;;;;;5018656;28;20044;-62
2022/04/08 04:19:46;;;;;;;4.00;1.08;;;16.90;61.50;;;;;;5025799;28;20025;-62
2022/04/08 04:22:11;;;;;;;2.90;0.95;;;16.90;61.50;;;;;;5019298;28;20032;-63
2022/04/08 04:24:37;;;;;;;2.92;0.90;;;16.90;61.60;;;;;;5026075;28;20033;-63
2022/04/08 04:27:03;;;;;;;3.42;0.90;;;16.90;61.50;;;;;;5013111;28;20037;-63
2022/04/08 04:29:28;;;;;;;1.48;0.80;;;16.90;61.60;;;;;;5023039;28;20036;-63
2022/04/08 04:31:55;;;;;;;2.92;0.90;;;16.90;61.60;;;;;;5020156;28;20138;-62
2022/04/08 04:34:23;;;;;;;3.88;0.88;;;16.90;61.60;;;;;;5015769;28;20056;-63
2022/04/08 04:36:49;;;;;;;2.97;1.08;;;16.90;61.50;;;;;;5020468;28;20056;-63
2022/04/08 04:39:14;;;;;;;2.92;0.85;;;16.90;61.70;;;;;;5019930;28;20487;-63
2022/04/08 04:41:40;;;;;;;2.95;0.95;;;16.90;61.70;;;;;;5018228;28;20380;-63
2022/04/08 04:44:05;;;;;;;6.90;0.98;;;16.90;61.80;;;;;;5016676;28;20526;-62
2022/04/08 04:46:31;;;;;;;2.92;1.00;;;16.90;61.60;;;;;;5015238;28;20029;-62
2022/04/08 04:48:57;;;;;;;2.05;0.70;;;16.90;61.70;;;;;;5014754;28;20046;-63
2022/04/08 04:51:23;;;;;;;2.72;0.98;;;16.90;61.70;;;;;;5020868;28;20108;-63
2022/04/08 04:53:48;;;;;;;3.85;0.88;;;16.90;61.80;;;;;;5021705;28;20258;-63
2022/04/08 04:56:14;;;;;;;2.80;0.80;;;16.80;61.60;;;;;;5020034;28;20564;-63
2022/04/08 04:58:39;;;;;;;2.63;0.70;;;16.90;61.70;;;;;;5019552;28;20422;-63
2022/04/08 05:01:05;;;;;;;2.33;0.90;;;16.80;61.60;;;;;;5018316;28;20524;-63
2022/04/08 05:03:31;;;;;;;3.28;0.80;;;16.80;61.80;;;;;;5019553;28;20025;-63
2022/04/08 05:05:56;;;;;;;2.05;0.80;;;16.80;62.00;;;;;;5016888;28;20445;-63
2022/04/08 05:08:22;;;;;;;4.50;1.17;;;16.80;61.80;;;;;;5019721;28;20057;-63
2022/04/08 05:10:48;;;;;;;4.65;1.10;;;16.80;62.00;;;;;;5016808;28;20136;-63
2022/04/08 05:13:13;;;;;;;4.38;1.10;;;16.80;62.50;;;;;;5018526;28;20035;-64
2022/04/08 05:15:42;;;;;;;3.40;0.93;;;16.80;62.60;;;;;;5018721;28;20390;-64
2022/04/08 05:18:09;;;;;;;5.88;1.02;;;16.80;62.60;;;;;;5023408;28;20082;-64
2022/04/08 05:20:34;;;;;;;4.68;1.10;;;16.80;62.90;;;;;;5018581;28;20562;-64
2022/04/08 05:23:00;;;;;;;5.53;1.30;;;16.80;62.90;;;;;;5023593;28;20414;-64
2022/04/08 05:25:26;;;;;;;4.97;0.98;;;16.80;63.00;;;;;;5015841;28;20051;-64
2022/04/08 05:27:53;;;;;;;4.35;1.05;;;16.80;63.10;;;;;;5017218;28;20048;-64
2022/04/08 05:30:18;;;;;;;3.97;0.90;;;16.80;62.80;;;;;;5010582;28;20333;-64
2022/04/08 05:32:46;;;;;;;3.90;1.00;;;16.80;62.80;;;;;;5022067;28;20060;-64
2022/04/08 05:35:21;;;;;;;3.30;1.00;;;16.80;62.60;;;;;;5019218;28;20025;-64
2022/04/08 05:37:47;;;;;;;;;;;16.80;63.00;;;;;;5020228;28;20022;-64
2022/04/08 05:40:17;;;;;;;4.43;0.90;;;16.80;62.70;;;;;;5014745;28;20420;-65
2022/04/08 05:42:46;;;;;;;8.38;1.17;;;16.80;62.90;;;;;;5010816;28;20212;-64
2022/04/08 05:45:13;;;;;;;6.28;1.40;;;16.80;62.50;;;;;;5017458;28;20061;-65
2022/04/08 05:47:39;;;;;;;5.40;0.90;;;16.80;62.90;;;;;;5022113;28;20401;-64
2022/04/08 05:50:05;;;;;;;5.68;1.20;;;16.80;62.70;;;;;;5017277;28;20037;-64
2022/04/08 05:52:30;;;;;;;2.42;0.82;;;16.70;62.80;;;;;;5016467;28;20150;-64
2022/04/08 05:54:57;;;;;;;5.05;1.00;;;16.70;62.80;;;;;;5043765;28;20048;-64
2022/04/08 05:57:23;;;;;;;7.30;1.20;;;16.70;62.80;;;;;;5015193;28;20117;-64
2022/04/08 05:59:48;;;;;;;5.90;1.30;;;16.70;62.70;;;;;;5016549;28;20216;-64
2022/04/08 06:02:14;;;;;;;3.78;0.88;;;16.70;62.70;;;;;;5017074;28;20391;-64
2022/04/08 06:04:40;;;;;;;4.53;0.80;;;16.70;62.80;;;;;;5017544;28;20029;-65
2022/04/08 06:07:06;;;;;;;3.60;0.90;;;16.70;62.80;;;;;;5013277;28;20034;-64
2022/04/08 06:09:32;;;;;;;2.72;0.73;;;16.70;62.70;;;;;;5011097;28;20064;-65
2022/04/08 06:11:59;;;;;;;4.47;1.05;;;16.70;62.70;;;;;;5022099;28;20540;-64
2022/04/08 06:14:28;;;;;;;4.07;1.10;;;16.70;62.80;;;;;;5017753;28;20401;-64
2022/04/08 06:16:54;;;;;;;3.10;0.80;;;16.70;62.80;;;;;;5020539;28;20032;-64
2022/04/08 06:19:19;;;;;;;4.07;0.90;;;16.60;62.80;;;;;;5011589;28;20033;-64
2022/04/08 06:21:45;;;;;;;4.85;1.08;;;16.70;62.80;;;;;;5015038;28;20123;-64
2022/04/08 06:24:11;;;;;;;3.55;0.80;;;16.60;62.80;;;;;;5020471;28;20398;-64
2022/04/08 06:26:36;;;;;;;3.55;0.90;;;16.70;62.60;;;;;;5025400;28;20056;-64
2022/04/08 06:29:05;;;;;;;3.22;1.00;;;16.70;62.90;;;;;;5022817;28;20391;-64
2022/04/08 06:31:33;;;;;;;2.25;0.65;;;16.60;62.80;;;;;;5020266;28;20401;-64
2022/04/08 06:34:00;;;;;;;4.68;0.93;;;16.60;62.60;;;;;;5025100;28;20030;-64
2022/04/08 06:36:26;;;;;;;3.95;0.88;;;16.60;62.80;;;;;;5015679;28;20045;-64
2022/04/08 06:38:51;;;;;;;2.30;0.65;;;16.60;62.80;;;;;;5012169;28;20049;-64
2022/04/08 06:41:17;;;;;;;2.42;0.80;;;16.60;62.70;;;;;;5022751;28;20633;-65
2022/04/08 06:43:43;;;;;;;4.45;1.00;;;16.60;62.80;;;;;;5024127;28;20092;-65
2022/04/08 06:46:08;;;;;;;3.17;0.90;;;16.60;62.80;;;;;;5028115;28;20521;-65
2022/04/08 06:48:34;;;;;;;3.55;0.80;;;16.60;62.80;;;;;;5018434;28;20061;-64
2022/04/08 06:51:04;;;;;;;4.55;0.90;;;16.60;62.70;;;;;;5024244;28;20111;-65
2022/04/08 06:53:30;;;;;;;3.90;1.00;;;16.60;62.70;;;;;;5026757;28;20045;-65
2022/04/08 06:55:56;;;;;;;7.15;1.33;;;16.60;62.70;;;;;;5022515;28;20026;-65
2022/04/08 06:58:26;;;;;;;4.53;1.10;;;16.60;62.70;;;;;;5015515;28;20701;-64
2022/04/08 07:00:52;;;;;;;2.90;0.82;;;16.60;62.70;;;;;;5019209;28;20623;-64
2022/04/08 07:03:18;;;;;;;3.45;0.93;;;16.60;62.80;;;;;;5024570;28;20083;-64
2022/04/08 07:05:43;;;;;;;1.65;0.70;;;16.50;62.60;;;;;;5024842;28;20025;-65
2022/04/08 07:08:09;;;;;;;2.90;0.80;;;16.50;62.70;;;;;;5027566;28;20040;-64
2022/04/08 07:10:34;;;;;;;2.38;0.57;;;16.60;62.80;;;;;;5023148;28;20025;-65
2022/04/08 07:13:00;;;;;;;3.13;0.82;;;16.50;62.60;;;;;;5028561;28;20041;-64
2022/04/08 07:15:26;;;;;;;2.65;0.70;;;16.50;62.70;;;;;;5027055;28;20487;-65
2022/04/08 07:17:51;;;;;;;3.58;0.80;;;16.50;62.60;;;;;;5021437;28;20506;-64
2022/04/08 07:20:17;;;;;;;3.67;0.68;;;16.50;62.60;;;;;;5025770;28;20033;-65
2022/04/08 07:22:43;;;;;;;2.72;0.80;;;16.50;62.60;;;;;;5024272;28;20109;-64
2022/04/08 07:25:10;;;;;;;1.58;0.63;;;16.50;62.60;;;;;;5028139;28;20030;-64
2022/04/08 07:27:43;;;;;;;3.40;0.85;;;16.50;62.60;;;;;;5016885;28;20036;-64
2022/04/08 07:30:08;;;;;;;4.40;1.00;;;16.50;62.50;;;;;;5032345;28;20029;-65
2022/04/08 07:32:34;;;;;;;1.98;0.80;;;16.50;62.60;;;;;;5028561;28;20427;-66
2022/04/08 07:35:00;;;;;;;3.75;0.80;;;16.50;62.50;;;;;;5023539;28;20498;-66
2022/04/08 07:37:29;;;;;;;3.70;0.75;;;16.50;63.00;;;;;;5019815;28;20072;-65
2022/04/08 07:39:56;;;;;;;3.35;0.90;;;16.50;62.90;;;;;;5020490;28;20163;-65
2022/04/08 07:42:22;;;;;;;4.20;0.90;;;16.50;63.00;;;;;;5031230;28;20108;-65
2022/04/08 07:44:47;;;;;;;2.83;0.88;;;16.50;63.00;;;;;;5023757;28;20629;-65
2022/04/08 07:47:14;;;;;;;4.65;1.00;;;16.50;63.00;;;;;;5022760;28;20026;-65
2022/04/08 07:49:39;;;;;;;1.92;0.80;;;16.50;63.00;;;;;;5018431;28;20057;-65
2022/04/08 07:52:05;;;;;;;0.82;0.50;;;16.50;63.00;;;;;;5022399;28;20491;-65
2022/04/08 07:54:31;;;;;;;3.17;0.75;;;16.60;63.00;;;;;;5018154;28;20145;-65
2022/04/08 07:56:57;;;;;;;3.47;0.90;;;16.60;63.00;;;;;;5029349;28;20444;-65
2022/04/08 07:59:22;;;;;;;4.00;0.90;;;16.60;62.90;;;;;;5025322;28;20561;-65
2022/04/08 08:01:48;;;;;;;2.40;0.80;;;16.50;62.90;;;;;;5019739;28;20034;-65
2022/04/08 08:04:14;;;;;;;1.45;0.65;;;16.50;62.90;;;;;;5020303;28;20022;-65
2022/04/08 08:06:40;;;;;;;3.00;0.70;;;16.50;62.90;;;;;;5019001;28;20030;-65
2022/04/08 08:09:06;;;;;;;3.60;0.82;;;16.50;62.90;;;;;;5020954;28;20191;-65
2022/04/08 08:11:31;;;;;;;3.30;0.70;;;16.50;62.90;;;;;;5020010;28;20029;-65
2022/04/08 08:13:58;;;;;;;2.38;0.70;;;16.50;62.90;;;;;;5018150;28;20050;-65
2022/04/08 08:16:23;;;;;;;2.80;0.80;;;16.50;62.90;;;;;;5018666;28;20414;-65
2022/04/08 08:18:50;;;;;;;3.17;0.65;;;16.50;62.90;;;;;;5021843;28;20033;-66
2022/04/08 08:21:16;;;;;;;5.03;0.75;;;16.50;62.90;;;;;;5018900;28;20022;-66
2022/04/08 08:23:41;;;;;;;3.13;0.90;;;16.50;63.00;;;;;;5020589;28;20014;-66
2022/04/08 08:26:07;;;;;;;2.15;0.70;;;16.50;63.00;;;;;;5021254;28;20036;-66
2022/04/08 08:28:32;;;;;;;1.55;0.75;;;16.50;63.00;;;;;;5015128;28;20047;-66
2022/04/08 08:30:58;;;;;;;1.10;0.57;;;16.50;63.00;;;;;;5022711;28;20052;-66
2022/04/08 08:33:24;;;;;;;1.80;0.73;;;16.50;63.00;;;;;;5026279;28;20182;-65
2022/04/08 08:35:49;;;;;;;2.05;0.70;;;16.50;63.00;;;;;;5017004;28;20042;-65
2022/04/08 08:38:15;;;;;;;4.55;0.65;;;16.50;63.00;;;;;;5017987;28;20025;-64
2022/04/08 08:40:42;;;;;;;1.85;0.82;;;16.50;63.00;;;;;;5014827;28;20037;-62
2022/04/08 08:43:08;;;;;;;3.58;0.65;;;16.50;62.90;;;;;;5018355;28;20112;-62
2022/04/08 08:45:34;;;;;;;2.10;0.93;;;16.50;62.90;;;;;;5015164;28;20435;-62
2022/04/08 08:48:02;;;;;;;4.93;0.88;;;16.40;62.90;;;;;;5025763;28;20025;-61
2022/04/08 08:50:30;;;;;;;3.35;0.77;;;16.50;62.90;;;;;;5018885;28;20041;-62
2022/04/08 08:52:56;;;;;;;4.20;0.75;;;16.50;62.90;;;;;;5019487;28;20078;-61
2022/04/08 08:55:22;;;;;;;3.45;0.88;;;16.50;63.00;;;;;;5019401;28;20112;-61
2022/04/08 08:57:49;;;;;;;2.13;0.60;;;16.40;62.90;;;;;;5020388;28;20447;-61
2022/04/08 09:00:16;;;;;;;6.88;0.68;;;16.40;62.90;;;;;;5017876;28;20036;-61
2022/04/08 09:02:45;;;;;;;3.35;0.65;;;16.40;62.90;;;;;;5017037;28;20037;-61
2022/04/08 09:05:11;;;;;;;2.20;0.63;;;16.40;62.90;;;;;;5018600;28;20033;-62
2022/04/08 09:07:37;;;;;;;1.23;0.57;;;16.40;62.90;;;;;;5023152;28;20042;-61
2022/04/08 09:10:02;;;;;;;2.92;0.70;;;16.40;62.90;;;;;;5016484;28;20464;-61
2022/04/08 09:12:31;;;;;;;3.72;0.82;;;16.40;62.90;;;;;;5020090;28;20745;-61
2022/04/08 09:14:58;;;;;;;1.70;0.50;;;16.40;62.80;;;;;;5015767;28;20018;-61
2022/04/08 09:17:25;;;;;;;2.35;0.60;;;16.40;63.90;;;;;;5020670;28;20032;-61
2022/04/08 09:19:55;;;;;;;2.25;0.47;;;16.40;62.90;;;;;;5019967;28;20034;-61
2022/04/08 09:22:24;;;;;;;2.30;0.70;;;16.40;62.90;;;;;;5015837;28;20152;-61
2022/04/08 09:24:51;;;;;;;3.22;0.68;;;16.40;62.90;;;;;;5014165;28;20037;-62
2022/04/08 09:27:16;;;;;;;4.65;0.60;;;16.40;63.10;;;;;;5018007;28;20392;-63
2022/04/08 09:29:43;;;;;;;4.10;0.80;;;16.40;63.00;;;;;;5016040;28;20037;-63
2022/04/08 09:32:09;;;;;;;3.67;0.63;;;16.40;62.90;;;;;;5019059;28;20044;-62
2022/04/08 09:34:36;;;;;;;3.10;0.93;;;16.40;63.20;;;;;;5022241;28;20029;-60
2022/04/08 09:37:15;;;;;;;1.13;0.60;;;16.40;63.30;;;;;;5029322;28;20479;-60
2022/04/08 09:39:58;;;;;;;3.17;0.52;;;16.40;63.40;;;;;;5023931;28;20453;-60
2022/04/08 09:42:24;;;;;;;2.33;0.60;;;16.40;63.30;;;;;;5019456;28;20109;-60
2022/04/08 09:44:51;;;;;;;2.08;0.73;;;16.40;63.10;;;;;;5023691;28;20052;-60
2022/04/08 09:47:16;;;;;;;3.22;0.50;;;16.40;63.20;;;;;;5019078;28;20018;-60
2022/04/08 09:49:43;;;;;;;3.05;0.60;;;16.40;63.20;;;;;;5019675;28;20042;-60
2022/04/08 09:52:09;;;;;;;1.88;0.60;;;16.50;63.20;;;;;;5015855;28;20038;-60
2022/04/08 09:54:37;;;;;;;2.88;0.75;;;16.40;63.10;;;;;;5015002;28;20038;-60
2022/04/08 09:57:03;;;;;;;1.05;0.50;;;16.40;63.10;;;;;;5019173;28;20101;-60
2022/04/08 09:59:29;;;;;;;3.38;0.65;;;16.40;63.10;;;;;;5017631;28;20113;-60
2022/04/08 10:01:56;;;;;;;2.17;0.52;;;16.40;63.00;;;;;;5029766;28;20036;-60
2022/04/08 10:04:22;;;;;;;2.30;0.68;;;16.40;63.00;;;;;;5028702;28;20040;-60
2022/04/08 10:06:48;;;;;;;1.38;0.55;;;16.40;63.00;;;;;;5023240;28;20021;-60
2022/04/08 10:09:15;;;;;;;2.78;0.70;;;16.40;62.90;;;;;;5017783;28;20147;-60
2022/04/08 10:11:57;;;;;;;2.10;0.63;;;16.40;62.90;;;;;;5023987;28;20303;-60
2022/04/08 10:14:47;;;;;;;4.40;0.90;;;16.40;62.90;;;;;;5024758;28;20091;-62
2022/04/08 10:17:13;;;;;;;3.03;0.60;;;16.40;62.80;;;;;;5020652;28;20510;-62
2022/04/08 10:19:38;;;;;;;1.75;0.50;;;16.40;62.80;;;;;;5009815;28;20030;-62
2022/04/08 10:22:13;;;;;;;2.05;0.70;;;16.40;62.90;;;;;;5024496;28;20036;-62
2022/04/08 10:24:39;;;;;;;2.17;0.60;;;16.40;62.80;;;;;;5025835;28;20064;-62
2022/04/08 10:27:09;;;;;;;3.67;0.60;;;16.40;62.80;;;;;;5025452;28;20025;-62
2022/04/08 10:29:37;;;;;;;1.27;0.68;;;16.40;62.80;;;;;;5025325;28;20029;-62
2022/04/08 10:32:05;;;;;;;2.55;0.57;;;16.40;62.80;;;;;;5022322;28;20125;-62
2022/04/08 10:34:32;;;;;;;2.35;0.85;;;16.40;62.80;;;;;;5021416;28;20044;-62
2022/04/08 10:36:59;;;;;;;4.72;1.13;;;16.40;62.80;;;;;;5022523;28;20083;-61
2022/04/08 10:39:24;;;;;;;5.90;1.70;;;16.40;63.40;;;;;;5019306;28;20109;-61
2022/04/08 10:41:54;;;;;;;7.68;1.52;;;16.40;64.60;;;;;;5023529;28;20554;-61
2022/04/08 10:44:36;;;;;;;4.68;1.20;;;16.40;66.00;;;;;;5023580;28;20041;-61
2022/04/08 10:47:17;;;;;;;4.55;0.90;;;16.40;65.20;;;;;;5020381;28;20033;-61
2022/04/08 10:49:49;;;;;;;7.85;1.80;;;16.40;64.70;;;;;;5021033;28;20469;-61
2022/04/08 10:52:18;;;;;;;6.65;1.42;;;16.40;66.10;;;;;;5018205;28;20030;-61
2022/04/08 10:54:44;;;;;;;6.35;1.55;;;16.40;66.40;;;;;;5016999;28;20132;-61
2022/04/08 10:57:11;;;;;;;10.95;1.92;;;16.30;66.20;;;;;;5023778;28;20594;-61
2022/04/08 10:59:37;;;;;;;9.98;1.48;;;16.30;67.90;;;;;;5016047;28;20048;-61
2022/04/08 11:02:05;;;;;;;6.65;1.42;;;16.40;67.90;;;;;;5016747;28;20033;-61
2022/04/08 11:04:31;;;;;;;7.97;1.40;;;16.30;68.00;;;;;;5014016;28;20107;-61
2022/04/08 11:07:05;;;;;;;8.35;1.48;;;16.30;67.10;;;;;;5010418;28;20029;-61
2022/04/08 11:09:31;;;;;;;7.57;1.10;;;16.30;67.40;;;;;;5011154;28;20119;-61
2022/04/08 11:11:57;;;;;;;9.82;1.35;;;16.40;67.10;;;;;;5011481;28;20168;-61
2022/04/08 11:14:22;;;;;;;6.88;1.52;;;16.30;67.50;;;;;;5017091;28;20107;-61
2022/04/08 11:16:51;;;;;;;6.15;1.40;;;16.40;67.50;;;;;;5014993;28;20810;-61
2022/04/08 11:19:19;;;;;;;6.85;1.40;;;16.40;67.40;;;;;;5009530;28;20237;-61
2022/04/08 11:21:44;;;;;;;7.40;1.17;;;16.30;67.10;;;;;;5012468;28;20045;-61
2022/04/08 11:24:11;;;;;;;7.57;1.17;;;16.40;67.10;;;;;;5013525;28;20092;-61
2022/04/08 11:26:44;;;;;;;7.57;1.50;;;16.40;67.10;;;;;;5017256;28;20506;-61
2022/04/08 11:29:11;;;;;;;4.78;1.25;;;16.40;66.90;;;;;;5022148;28;20053;-61
2022/04/08 11:31:40;;;;;;;5.68;1.38;;;16.40;66.80;;;;;;5019702;28;20041;-61
2022/04/08 11:34:06;;;;;;;6.28;1.27;;;16.40;66.60;;;;;;5015029;28;20072;-61
2022/04/08 11:36:36;;;;;;;6.78;1.27;;;16.40;66.50;;;;;;5022684;28;20022;-61
2022/04/08 11:39:04;;;;;;;5.18;1.13;;;16.40;66.40;;;;;;5021005;28;20082;-61
2022/04/08 11:41:30;;;;;;;6.45;1.27;;;16.40;66.40;;;;;;5028812;28;20049;-61
2022/04/08 11:43:56;;;;;;;5.10;1.10;;;16.40;66.10;;;;;;5028204;28;20116;-61
2022/04/08 11:46:22;;;;;;;5.15;1.27;;;16.40;65.90;;;;;;5030329;28;20028;-61
2022/04/08 11:48:49;;;;;;;5.70;1.40;;;16.50;65.80;;;;;;5013225;28;20060;-61
2022/04/08 11:51:17;;;;;;;5.85;1.40;;;16.50;65.70;;;;;;5026523;28;20061;-61
2022/04/08 11:53:50;;;;;;;4.28;1.20;;;16.50;65.50;;;;;;5026392;28;20106;-61
2022/04/08 11:56:26;;;;;;;6.68;1.30;;;16.50;65.40;;;;;;5026554;28;20564;-61
2022/04/08 11:59:00;;;;;;;5.07;1.20;;;16.60;65.30;;;;;;5020574;28;20052;-61
2022/04/08 12:01:34;;;;;;;8.68;1.77;;;16.50;65.10;;;;;;5016879;28;20060;-61
2022/04/08 12:04:19;;;;;;;4.40;1.00;;;16.50;65.10;;;;;;5013788;28;20038;-61
2022/04/08 12:06:48;;;;;;;5.72;1.08;;;16.50;65.10;;;;;;5023620;28;20414;-61
2022/04/08 12:09:15;;;;;;;5.13;1.27;;;16.50;65.20;;;;;;5029444;28;20523;-61
2022/04/08 12:11:42;;;;;;;6.45;1.20;;;16.50;65.20;;;;;;5033655;28;20038;-61
2022/04/08 12:14:09;;;;;;;5.20;1.02;;;16.50;65.10;;;;;;5017553;28;20044;-61
2022/04/08 12:16:36;;;;;;;5.05;1.20;;;16.50;65.10;;;;;;5024947;28;20033;-61
2022/04/08 12:19:02;;;;;;;6.20;1.10;;;16.50;65.00;;;;;;5017641;28;20049;-61
2022/04/08 12:21:28;;;;;;;5.68;1.23;;;16.40;65.00;;;;;;5026595;28;20052;-61
2022/04/08 12:23:55;;;;;;;5.28;1.10;;;16.40;65.00;;;;;;5022642;28;20453;-61
2022/04/08 12:26:30;;;;;;;4.78;1.20;;;16.40;65.00;;;;;;5026238;28;20087;-61
2022/04/08 12:29:08;;;;;;;6.88;1.80;;;16.40;64.90;;;;;;5023426;28;20038;-61
2022/04/08 12:31:44;;;;;;;2.70;0.90;;;16.40;65.00;;;;;;5020265;28;20486;-61
2022/04/08 12:34:10;;;;;;;4.68;1.05;;;16.40;64.90;;;;;;5018294;28;20034;-61
2022/04/08 12:36:36;;;;;;;3.28;0.88;;;16.40;65.00;;;;;;5019997;28;20501;-61
2022/04/08 12:39:01;;;;;;;4.18;1.10;;;16.40;64.80;;;;;;5020786;28;20113;-61
2022/04/08 12:41:27;;;;;;;5.55;0.93;;;16.40;64.80;;;;;;5023348;28;20090;-61
2022/04/08 12:43:54;;;;;;;5.35;1.00;;;16.40;64.80;;;;;;5017086;28;20069;-61
2022/04/08 12:46:21;;;;;;;4.57;1.00;;;16.40;64.90;;;;;;5014691;28;20111;-61